Time;durP1;ratioP1;P1;durP2;ratioP2;P2;SDS_P1;SDS_P2;PMS_P1;PMS_P2;Temp;Humidity;BMP_temperature;BMP_pressure;BME280_temperature;BME280_humidity;BME280_pressure;Samples;Min_cycle;Max_cycle;Signal;HPM_P1;HPM_P2
2024/03/19 00:01:58;;;;;;;31.33;20.42;;;8.60;99.90;;;;;;5072944;28;20190;-48
2024/03/19 00:04:24;;;;;;;29.73;20.50;;;8.60;99.90;;;;;;5072365;28;20485;-50
2024/03/19 00:06:51;;;;;;;32.47;20.70;;;8.60;99.90;;;;;;5085608;28;20412;-48
2024/03/19 00:09:17;;;;;;;29.25;19.85;;;8.60;99.90;;;;;;5073424;28;20043;-47
2024/03/19 00:11:44;;;;;;;31.77;20.58;;;8.60;99.90;;;;;;5072829;28;20413;-47
2024/03/19 00:14:09;;;;;;;30.05;20.15;;;8.60;99.90;;;;;;5073651;28;20462;-46
2024/03/19 00:16:35;;;;;;;31.25;20.50;;;8.60;99.90;;;;;;5087426;28;20041;-48
2024/03/19 00:19:02;;;;;;;31.83;20.10;;;8.60;99.90;;;;;;5072848;28;20047;-47
2024/03/19 00:21:28;;;;;;;28.88;19.95;;;8.50;99.90;;;;;;5073063;28;20048;-47
2024/03/19 00:23:54;;;;;;;30.83;20.30;;;8.40;99.90;;;;;;5074875;28;20053;-46
2024/03/19 00:26:20;;;;;;;32.63;21.83;;;8.40;99.90;;;;;;5072241;28;20045;-47
2024/03/19 00:28:46;;;;;;;33.33;20.88;;;8.30;99.90;;;;;;5072885;28;20048;-47
2024/03/19 00:31:12;;;;;;;29.30;19.85;;;8.20;99.90;;;;;;5086342;28;20056;-45
2024/03/19 00:33:38;;;;;;;34.92;21.05;;;8.10;99.90;;;;;;5068445;28;20448;-47
2024/03/19 00:36:09;;;;;;;30.30;20.65;;;8.10;99.90;;;;;;5073148;28;20056;-48
2024/03/19 00:38:35;;;;;;;33.60;21.08;;;8.00;99.90;;;;;;5072603;28;20041;-46
2024/03/19 00:41:01;;;;;;;34.92;22.40;;;7.90;99.90;;;;;;5073882;28;20047;-44
2024/03/19 00:43:27;;;;;;;37.25;22.52;;;7.80;99.90;;;;;;5072389;28;20044;-48
2024/03/19 00:45:54;;;;;;;42.58;23.08;;;7.70;99.90;;;;;;5072117;28;20112;-46
2024/03/19 00:48:20;;;;;;;36.00;23.10;;;7.70;99.90;;;;;;5072742;28;20032;-45
2024/03/19 00:50:46;;;;;;;35.45;23.80;;;7.70;99.90;;;;;;5073011;28;20033;-41
2024/03/19 00:53:12;;;;;;;36.63;23.00;;;7.60;99.90;;;;;;5087200;28;20417;-42
2024/03/19 00:55:38;;;;;;;44.38;24.02;;;7.50;99.90;;;;;;5073509;28;20036;-49
2024/03/19 00:58:04;;;;;;;35.05;23.25;;;7.50;99.90;;;;;;5082472;28;20056;-45
2024/03/19 01:00:31;;;;;;;40.03;24.92;;;7.40;99.90;;;;;;5069837;28;20090;-48
2024/03/19 01:02:57;;;;;;;38.83;24.10;;;7.40;99.90;;;;;;5069702;28;20193;-47
2024/03/19 01:05:23;;;;;;;38.47;24.67;;;7.40;99.90;;;;;;5070410;28;20040;-47
2024/03/19 01:07:50;;;;;;;39.50;25.85;;;7.30;99.90;;;;;;5068030;28;20040;-49
2024/03/19 01:10:16;;;;;;;47.65;26.77;;;7.30;99.90;;;;;;5071829;28;20048;-46
2024/03/19 01:12:42;;;;;;;41.85;26.95;;;7.20;99.90;;;;;;5073674;28;20110;-46
2024/03/19 01:15:08;;;;;;;43.97;25.67;;;7.20;99.90;;;;;;5073306;28;20076;-47
2024/03/19 01:17:39;;;;;;;40.70;26.02;;;7.10;99.90;;;;;;5073921;28;20055;-48
2024/03/19 01:20:11;;;;;;;41.58;25.25;;;7.10;99.90;;;;;;5072988;28;20053;-45
2024/03/19 01:22:37;;;;;;;;;;;7.20;99.90;;;;;;5074289;28;20037;-46
2024/03/19 01:25:06;;;;;;;39.22;24.42;;;7.10;99.90;;;;;;5072780;28;19931;-47
2024/03/19 01:27:35;;;;;;;44.42;25.73;;;7.10;99.90;;;;;;5078065;28;20059;-47
2024/03/19 01:30:02;;;;;;;39.25;24.55;;;7.10;99.90;;;;;;5077737;28;20052;-47
2024/03/19 01:32:30;;;;;;;42.72;27.15;;;7.10;99.90;;;;;;5069077;28;20044;-49
2024/03/19 01:34:56;;;;;;;41.80;25.20;;;7.00;99.90;;;;;;5069557;28;20056;-51
2024/03/19 01:37:26;;;;;;;39.58;25.52;;;7.10;99.90;;;;;;5070132;28;20049;-54
2024/03/19 01:39:52;;;;;;;39.03;24.10;;;7.10;99.90;;;;;;5067954;28;20048;-48
2024/03/19 01:42:18;;;;;;;39.00;23.70;;;7.10;99.90;;;;;;5069037;28;20048;-47
2024/03/19 01:44:44;;;;;;;38.33;23.85;;;7.10;99.90;;;;;;5084840;28;20151;-49
2024/03/19 01:47:10;;;;;;;42.83;25.45;;;7.10;99.90;;;;;;5069260;28;20056;-44
2024/03/19 01:49:37;;;;;;;41.05;26.52;;;7.00;99.90;;;;;;5069162;28;20149;-46
2024/03/19 01:52:05;;;;;;;37.13;23.98;;;7.10;99.90;;;;;;5079110;28;20056;-43
2024/03/19 01:54:32;;;;;;;39.33;24.98;;;7.10;99.90;;;;;;5069260;28;20102;-53
2024/03/19 01:56:58;;;;;;;39.45;24.80;;;7.00;99.90;;;;;;5066026;28;20087;-50
2024/03/19 01:59:24;;;;;;;42.55;25.88;;;7.00;99.90;;;;;;5068799;28;20114;-51
2024/03/19 02:01:50;;;;;;;39.65;25.85;;;7.00;99.90;;;;;;5052367;28;20596;-41
2024/03/19 02:04:16;;;;;;;40.85;24.88;;;7.00;99.90;;;;;;5068790;28;20067;-46
2024/03/19 02:06:42;;;;;;;42.95;26.15;;;7.00;99.90;;;;;;5067697;28;20028;-42
2024/03/19 02:09:12;;;;;;;42.95;25.33;;;7.00;99.90;;;;;;5068343;28;20071;-48
2024/03/19 02:11:38;;;;;;;42.33;25.40;;;7.00;99.90;;;;;;5068855;28;20118;-47
2024/03/19 02:14:05;;;;;;;42.63;27.10;;;7.00;99.90;;;;;;5079986;28;20064;-47
2024/03/19 02:16:32;;;;;;;44.20;28.20;;;7.10;99.90;;;;;;5069881;28;20052;-49
2024/03/19 02:19:05;;;;;;;42.60;27.65;;;7.10;99.90;;;;;;5070613;28;20052;-50
2024/03/19 02:21:33;;;;;;;42.17;26.67;;;7.10;99.90;;;;;;5062879;28;20040;-47
2024/03/19 02:24:01;;;;;;;47.45;30.20;;;7.20;99.90;;;;;;5068704;28;20044;-48
2024/03/19 02:26:29;;;;;;;46.20;28.13;;;7.30;99.90;;;;;;5066450;28;20531;-46
2024/03/19 02:29:00;;;;;;;41.30;25.90;;;7.30;99.90;;;;;;5070996;28;20099;-50
2024/03/19 02:31:29;;;;;;;37.75;24.80;;;7.30;99.90;;;;;;5070334;28;20044;-49
2024/03/19 02:33:55;;;;;;;43.15;26.33;;;7.40;99.90;;;;;;5061403;28;20043;-47
2024/03/19 02:36:22;;;;;;;35.85;23.70;;;7.40;99.90;;;;;;5069607;28;20549;-46
2024/03/19 02:38:49;;;;;;;42.10;25.70;;;7.30;99.90;;;;;;5067670;28;20045;-50
2024/03/19 02:41:15;;;;;;;37.63;22.85;;;7.30;99.90;;;;;;5059855;28;20040;-50
2024/03/19 02:43:41;;;;;;;43.17;26.45;;;7.30;99.90;;;;;;5066379;28;20497;-48
2024/03/19 02:46:07;;;;;;;38.15;25.42;;;7.20;99.90;;;;;;5068375;28;20478;-45
2024/03/19 02:48:34;;;;;;;46.67;27.55;;;7.20;99.90;;;;;;5068792;28;20044;-46
2024/03/19 02:51:00;;;;;;;42.70;25.02;;;7.10;99.90;;;;;;5070567;28;20056;-48
2024/03/19 02:53:26;;;;;;;45.90;28.65;;;7.10;99.90;;;;;;5063597;28;20532;-49
2024/03/19 02:55:53;;;;;;;45.30;27.67;;;7.00;99.90;;;;;;5068250;28;20044;-43
2024/03/19 02:58:19;;;;;;;46.05;27.00;;;7.00;99.90;;;;;;5062895;28;20041;-48
2024/03/19 03:00:45;;;;;;;42.47;26.70;;;7.00;99.90;;;;;;5068151;28;20374;-53
2024/03/19 03:03:11;;;;;;;45.08;27.85;;;6.90;99.90;;;;;;5078439;28;20128;-52
2024/03/19 03:05:38;;;;;;;42.50;25.88;;;6.90;99.90;;;;;;5069272;28;20037;-47
2024/03/19 03:08:05;;;;;;;42.60;27.23;;;7.00;99.90;;;;;;5069293;28;20052;-47
2024/03/19 03:10:32;;;;;;;41.70;25.77;;;6.90;99.90;;;;;;5069316;28;20524;-51
2024/03/19 03:12:58;;;;;;;40.20;25.25;;;6.80;99.90;;;;;;5070662;28;20045;-48
2024/03/19 03:15:24;;;;;;;42.38;25.50;;;6.80;99.90;;;;;;5070899;28;20040;-49
2024/03/19 03:17:50;;;;;;;42.03;26.55;;;6.80;99.90;;;;;;5066834;28;20451;-45
2024/03/19 03:20:16;;;;;;;41.53;26.52;;;6.80;99.90;;;;;;5066551;28;20151;-47
2024/03/19 03:22:42;;;;;;;42.53;26.83;;;6.80;99.90;;;;;;5063609;28;20071;-49
2024/03/19 03:25:11;;;;;;;44.92;26.52;;;6.80;99.90;;;;;;5067194;28;20064;-48
2024/03/19 03:27:41;;;;;;;44.05;27.13;;;6.80;99.90;;;;;;5071823;28;20037;-49
2024/03/19 03:30:10;;;;;;;40.78;26.73;;;6.90;99.90;;;;;;5071032;28;20066;-47
2024/03/19 03:32:38;;;;;;;44.15;28.52;;;7.00;99.90;;;;;;5065497;28;20044;-42
2024/03/19 03:35:04;;;;;;;42.95;26.13;;;7.00;99.90;;;;;;5083913;28;20052;-48
2024/03/19 03:37:31;;;;;;;39.35;24.45;;;7.00;99.90;;;;;;5067634;28;20040;-41
2024/03/19 03:39:58;;;;;;;41.97;25.85;;;7.00;99.90;;;;;;5062290;28;20047;-47
2024/03/19 03:42:24;;;;;;;44.03;27.17;;;7.10;99.90;;;;;;5066739;28;20045;-49
2024/03/19 03:44:50;;;;;;;42.05;26.23;;;7.10;99.90;;;;;;5067329;28;20047;-46
2024/03/19 03:47:16;;;;;;;41.78;25.67;;;7.10;99.90;;;;;;5067576;28;20697;-45
2024/03/19 03:49:43;;;;;;;38.90;25.23;;;7.10;99.90;;;;;;5062932;28;20041;-50
2024/03/19 03:52:09;;;;;;;38.70;24.67;;;7.10;99.90;;;;;;5065879;28;20108;-48
2024/03/19 03:54:35;;;;;;;42.08;27.10;;;7.20;99.90;;;;;;5051966;28;20572;-45
2024/03/19 03:57:01;;;;;;;42.25;27.30;;;7.20;99.90;;;;;;5064627;28;20064;-48
2024/03/19 03:59:27;;;;;;;45.65;28.02;;;7.20;99.90;;;;;;5068039;28;20055;-48
2024/03/19 04:01:53;;;;;;;47.55;28.30;;;7.20;99.90;;;;;;5078811;28;20041;-46
2024/03/19 04:04:20;;;;;;;45.63;28.38;;;7.20;99.90;;;;;;5067349;28;20129;-49
2024/03/19 04:06:48;;;;;;;48.63;28.85;;;7.20;99.90;;;;;;5051261;28;20079;-47
2024/03/19 04:09:15;;;;;;;44.88;26.88;;;7.20;99.90;;;;;;5061847;28;20124;-46
2024/03/19 04:11:41;;;;;;;42.55;27.48;;;7.20;99.90;;;;;;5081879;28;20074;-49
2024/03/19 04:14:07;;;;;;;45.63;26.17;;;7.20;99.90;;;;;;5079861;28;20159;-48
2024/03/19 04:16:33;;;;;;;43.80;26.98;;;7.20;99.90;;;;;;5067307;28;20075;-49
2024/03/19 04:18:59;;;;;;;44.25;27.25;;;7.30;99.90;;;;;;5067539;28;20063;-51
2024/03/19 04:21:25;;;;;;;41.88;26.73;;;7.20;99.90;;;;;;5062098;28;20521;-48
2024/03/19 04:23:51;;;;;;;45.50;27.65;;;7.20;99.90;;;;;;5064360;28;20041;-50
2024/03/19 04:26:18;;;;;;;45.67;27.58;;;7.30;99.90;;;;;;5064233;28;20052;-46
2024/03/19 04:28:44;;;;;;;42.63;27.30;;;7.30;99.90;;;;;;5068784;28;20537;-44
2024/03/19 04:31:10;;;;;;;49.63;29.65;;;7.20;99.90;;;;;;5069128;28;20044;-51
2024/03/19 04:33:36;;;;;;;49.75;28.95;;;7.30;99.90;;;;;;5065010;28;20460;-48
2024/03/19 04:36:02;;;;;;;45.15;29.05;;;7.30;99.90;;;;;;5069292;28;20051;-43
2024/03/19 04:38:28;;;;;;;49.45;29.48;;;7.30;99.90;;;;;;5065405;28;20494;-45
2024/03/19 04:40:54;;;;;;;49.60;29.77;;;7.30;99.90;;;;;;5070807;28;20102;-48
2024/03/19 04:43:20;;;;;;;52.38;30.00;;;7.30;99.90;;;;;;5068121;28;20511;-48
2024/03/19 04:45:46;;;;;;;45.65;26.63;;;7.40;99.90;;;;;;5070077;28;20048;-46
2024/03/19 04:48:12;;;;;;;44.65;27.05;;;7.40;99.90;;;;;;5069889;28;20134;-46
2024/03/19 04:50:38;;;;;;;46.03;29.48;;;7.40;99.90;;;;;;5066664;28;20048;-47
2024/03/19 04:53:04;;;;;;;46.63;28.38;;;7.40;99.90;;;;;;5068394;28;20055;-43
2024/03/19 04:55:30;;;;;;;45.70;27.55;;;7.40;99.90;;;;;;5080315;28;20076;-44
2024/03/19 04:57:56;;;;;;;47.60;29.50;;;7.50;99.90;;;;;;5050418;28;20179;-51
2024/03/19 05:00:22;;;;;;;45.38;28.38;;;7.50;99.90;;;;;;5066692;28;20063;-50
2024/03/19 05:02:48;;;;;;;49.53;29.30;;;7.50;99.90;;;;;;5070078;28;20040;-50
2024/03/19 05:05:14;;;;;;;45.22;28.40;;;7.60;99.90;;;;;;5068196;28;20048;-48
2024/03/19 05:07:44;;;;;;;44.90;28.83;;;7.60;99.90;;;;;;5069265;28;20714;-42
2024/03/19 05:10:10;;;;;;;48.67;28.95;;;7.60;99.90;;;;;;5061535;28;20048;-45
2024/03/19 05:12:35;;;;;;;46.97;28.50;;;7.60;99.90;;;;;;5061615;28;20094;-48
2024/03/19 05:15:04;;;;;;;46.92;29.13;;;7.60;99.90;;;;;;5068203;28;20040;-46
2024/03/19 05:17:30;;;;;;;47.22;28.75;;;7.60;99.90;;;;;;5065867;28;20162;-45
2024/03/19 05:19:57;;;;;;;43.83;27.20;;;7.70;99.90;;;;;;5068484;28;20043;-47
2024/03/19 05:22:23;;;;;;;44.78;27.92;;;7.70;99.90;;;;;;5067990;28;20040;-49
2024/03/19 05:24:50;;;;;;;44.00;27.83;;;7.70;99.90;;;;;;5070543;28;20059;-47
2024/03/19 05:27:16;;;;;;;44.22;26.38;;;7.70;99.90;;;;;;5070640;28;20048;-49
2024/03/19 05:29:42;;;;;;;44.75;27.45;;;7.70;99.90;;;;;;5068819;28;20110;-48
2024/03/19 05:32:09;;;;;;;46.00;28.52;;;7.70;99.90;;;;;;5066721;28;20090;-44
2024/03/19 05:34:36;;;;;;;41.85;26.80;;;7.70;99.90;;;;;;5068149;28;20064;-49
2024/03/19 05:37:03;;;;;;;48.70;29.17;;;7.70;99.90;;;;;;5068517;28;20086;-47
2024/03/19 05:39:30;;;;;;;47.53;27.73;;;7.70;99.90;;;;;;5065308;28;20101;-47
2024/03/19 05:41:56;;;;;;;42.78;25.77;;;7.80;99.90;;;;;;5067040;28;20036;-46
2024/03/19 05:44:23;;;;;;;43.03;26.88;;;7.80;99.90;;;;;;5069089;28;20098;-46
2024/03/19 05:46:49;;;;;;;48.20;28.98;;;7.80;99.90;;;;;;5067778;28;20059;-47
2024/03/19 05:49:15;;;;;;;48.88;29.20;;;7.80;99.90;;;;;;5069607;28;20425;-50
2024/03/19 05:51:42;;;;;;;40.90;26.05;;;7.80;99.90;;;;;;5068706;28;20097;-44
2024/03/19 05:54:08;;;;;;;46.30;28.30;;;7.80;99.90;;;;;;5068262;28;20040;-46
2024/03/19 05:56:34;;;;;;;49.15;30.42;;;7.90;99.90;;;;;;5068689;28;20036;-52
2024/03/19 05:59:00;;;;;;;48.28;29.10;;;8.00;99.90;;;;;;5068167;28;20123;-45
2024/03/19 06:01:26;;;;;;;45.97;28.48;;;8.00;99.90;;;;;;5067055;28;20048;-45
2024/03/19 06:03:52;;;;;;;45.85;29.38;;;8.00;99.90;;;;;;5071054;28;20434;-47
2024/03/19 06:06:18;;;;;;;44.70;27.85;;;8.10;99.90;;;;;;5071237;28;20068;-49
2024/03/19 06:08:44;;;;;;;47.25;29.20;;;8.10;99.90;;;;;;5070636;28;20067;-49
2024/03/19 06:11:10;;;;;;;42.40;27.88;;;8.10;99.90;;;;;;5068266;28;20094;-43
2024/03/19 06:13:36;;;;;;;47.08;27.48;;;8.10;99.90;;;;;;5063091;28;20040;-43
2024/03/19 06:16:04;;;;;;;52.55;31.48;;;8.20;99.90;;;;;;5063116;28;20047;-48
2024/03/19 06:18:31;;;;;;;56.85;32.70;;;8.20;99.90;;;;;;5067394;28;20033;-48
2024/03/19 06:20:57;;;;;;;51.30;29.73;;;8.20;99.90;;;;;;5067482;28;20439;-45
2024/03/19 06:23:26;;;;;;;42.65;28.73;;;8.30;99.90;;;;;;5068927;28;20192;-42
2024/03/19 06:25:53;;;;;;;39.42;25.50;;;8.40;99.90;;;;;;5069013;28;20037;-44
2024/03/19 06:28:19;;;;;;;43.08;26.20;;;8.40;99.90;;;;;;5067966;28;20074;-48
2024/03/19 06:30:45;;;;;;;42.55;26.58;;;8.50;99.90;;;;;;5079794;28;20531;-51
2024/03/19 06:33:12;;;;;;;38.58;25.70;;;8.50;99.90;;;;;;5067254;28;20044;-47
2024/03/19 06:35:40;;;;;;;39.95;24.27;;;8.50;99.90;;;;;;5066171;28;20091;-48
2024/03/19 06:38:06;;;;;;;41.67;24.45;;;8.60;99.90;;;;;;5066476;28;20048;-48
2024/03/19 06:40:32;;;;;;;40.08;25.70;;;8.60;99.90;;;;;;5081660;28;20072;-46
2024/03/19 06:42:59;;;;;;;38.97;25.63;;;8.70;99.90;;;;;;5068202;28;20052;-49
2024/03/19 06:45:26;;;;;;;33.53;22.17;;;8.70;99.90;;;;;;5067640;28;20048;-49
2024/03/19 06:47:53;;;;;;;36.75;23.33;;;8.90;99.90;;;;;;5065030;28;20388;-44
2024/03/19 06:50:19;;;;;;;39.10;25.23;;;9.10;99.90;;;;;;5069023;28;20056;-47
2024/03/19 06:52:46;;;;;;;35.90;23.90;;;9.20;99.90;;;;;;5063637;28;20163;-47
2024/03/19 06:55:12;;;;;;;36.63;23.67;;;9.30;99.90;;;;;;5061607;28;20048;-51
2024/03/19 06:57:39;;;;;;;39.35;25.30;;;9.30;99.90;;;;;;5062403;28;20401;-44
2024/03/19 07:00:13;;;;;;;37.97;26.15;;;9.30;99.90;;;;;;5069325;28;20051;-48
2024/03/19 07:02:43;;;;;;;39.72;26.17;;;9.30;99.90;;;;;;5064346;28;20047;-48
2024/03/19 07:05:12;;;;;;;37.53;23.52;;;9.20;99.90;;;;;;5067056;28;20051;-48
2024/03/19 07:07:39;;;;;;;38.42;24.85;;;9.20;99.90;;;;;;5067835;28;20051;-46
2024/03/19 07:10:05;;;;;;;36.97;23.15;;;9.20;99.90;;;;;;5081370;28;20049;-48
2024/03/19 07:12:32;;;;;;;37.42;24.02;;;9.20;99.90;;;;;;5079830;28;20041;-46
2024/03/19 07:15:00;;;;;;;40.97;23.80;;;9.20;99.90;;;;;;5068808;28;20044;-49
2024/03/19 07:17:26;;;;;;;43.08;24.90;;;9.20;99.90;;;;;;5068141;28;20467;-46
2024/03/19 07:19:54;;;;;;;41.47;25.45;;;9.10;99.90;;;;;;5068827;28;20417;-46
2024/03/19 07:22:20;;;;;;;39.22;25.98;;;9.10;99.90;;;;;;5068754;28;20052;-41
2024/03/19 07:24:47;;;;;;;38.75;25.73;;;9.10;99.90;;;;;;5070424;28;20047;-45
2024/03/19 07:27:14;;;;;;;40.83;24.45;;;9.10;99.90;;;;;;5068311;28;20056;-46
2024/03/19 07:29:41;;;;;;;40.97;26.23;;;9.20;99.90;;;;;;5063600;28;20048;-44
2024/03/19 07:32:10;;;;;;;45.83;27.48;;;9.10;99.90;;;;;;5067131;28;20108;-49
2024/03/19 07:34:40;;;;;;;41.72;27.05;;;9.20;99.90;;;;;;5070626;28;20048;-49
2024/03/19 07:37:07;;;;;;;42.80;27.67;;;9.10;99.90;;;;;;5069204;28;20497;-45
2024/03/19 07:39:33;;;;;;;39.13;25.42;;;9.10;99.90;;;;;;5071551;28;20068;-44
2024/03/19 07:42:00;;;;;;;40.33;26.50;;;9.20;99.90;;;;;;5070865;28;20096;-50
2024/03/19 07:44:26;;;;;;;35.70;24.20;;;9.20;99.90;;;;;;5064975;28;20110;-46
2024/03/19 07:46:52;;;;;;;41.60;26.42;;;9.30;99.90;;;;;;5063512;28;20037;-48
2024/03/19 07:49:17;;;;;;;42.25;26.40;;;9.30;99.90;;;;;;5071343;28;20040;-44
2024/03/19 07:51:43;;;;;;;39.65;25.42;;;9.40;99.90;;;;;;5079464;28;20035;-48
2024/03/19 07:54:10;;;;;;;37.00;24.73;;;9.50;99.90;;;;;;5065840;28;20060;-50
2024/03/19 07:56:40;;;;;;;37.85;23.83;;;9.60;99.90;;;;;;5067583;28;20090;-43
2024/03/19 07:59:07;;;;;;;36.83;23.77;;;9.70;99.90;;;;;;5069668;28;20048;-45
2024/03/19 08:01:33;;;;;;;41.60;25.00;;;9.80;99.90;;;;;;5082718;28;20032;-45
2024/03/19 08:03:59;;;;;;;39.42;24.98;;;9.90;99.90;;;;;;5075936;28;20068;-47
2024/03/19 08:06:26;;;;;;;37.90;25.00;;;10.10;99.90;;;;;;5067762;28;20070;-50
2024/03/19 08:08:52;;;;;;;46.53;27.25;;;10.30;99.90;;;;;;5079708;28;20044;-48
2024/03/19 08:11:18;;;;;;;42.83;27.17;;;10.30;99.90;;;;;;5073678;28;20130;-46
2024/03/19 08:13:44;;;;;;;41.63;25.48;;;10.40;99.90;;;;;;5073196;28;20086;-50
2024/03/19 08:16:11;;;;;;;40.72;25.98;;;10.60;99.90;;;;;;5073009;28;20107;-47
2024/03/19 08:18:37;;;;;;;37.08;23.08;;;10.70;99.90;;;;;;5074994;28;20051;-44
2024/03/19 08:21:03;;;;;;;41.30;25.65;;;10.80;99.90;;;;;;5071171;28;20055;-45
2024/03/19 08:23:29;;;;;;;39.78;24.92;;;10.90;99.90;;;;;;5068192;28;20049;-48
2024/03/19 08:25:56;;;;;;;33.10;22.08;;;11.00;99.90;;;;;;5069748;28;20421;-51
2024/03/19 08:28:22;;;;;;;37.70;23.77;;;11.00;99.90;;;;;;5069498;28;20847;-47
2024/03/19 08:30:48;;;;;;;44.92;26.95;;;11.20;99.90;;;;;;5069490;28;20036;-47
2024/03/19 08:33:14;;;;;;;37.95;24.25;;;11.20;99.90;;;;;;5068592;28;20070;-42
2024/03/19 08:35:40;;;;;;;29.83;21.30;;;11.20;99.90;;;;;;5068463;28;20037;-45
2024/03/19 08:38:06;;;;;;;33.10;22.40;;;11.30;99.90;;;;;;5084983;28;20052;-45
2024/03/19 08:40:33;;;;;;;30.35;20.42;;;11.30;99.90;;;;;;5068784;28;20313;-45
2024/03/19 08:42:59;;;;;;;33.65;19.83;;;11.40;99.90;;;;;;5067634;28;20053;-43
2024/03/19 08:45:25;;;;;;;28.25;18.35;;;11.50;99.90;;;;;;5068082;28;20033;-44
2024/03/19 08:47:52;;;;;;;26.77;17.73;;;11.70;99.90;;;;;;5068254;28;20040;-43
2024/03/19 08:50:18;;;;;;;28.13;19.15;;;11.80;99.90;;;;;;5051058;28;20579;-43
2024/03/19 08:52:44;;;;;;;26.23;18.33;;;11.90;99.90;;;;;;5068574;28;20040;-44
2024/03/19 08:55:12;;;;;;;28.83;18.65;;;11.90;99.90;;;;;;5067575;28;20075;-48
2024/03/19 08:57:41;;;;;;;23.25;16.75;;;12.10;99.90;;;;;;5064859;28;20517;-45
2024/03/19 09:00:15;;;;;;;23.00;16.02;;;12.30;99.90;;;;;;5063822;28;20345;-48
2024/03/19 09:02:43;;;;;;;24.92;16.40;;;12.40;99.90;;;;;;5059145;28;20059;-51
2024/03/19 09:05:09;;;;;;;22.17;15.35;;;12.50;99.90;;;;;;5068824;28;20539;-44
2024/03/19 09:07:39;;;;;;;24.02;15.70;;;12.60;99.90;;;;;;5068005;28;20199;-47
2024/03/19 09:10:07;;;;;;;22.30;16.00;;;12.60;99.90;;;;;;5069053;28;20114;-46
2024/03/19 09:12:33;;;;;;;31.08;19.85;;;12.80;99.90;;;;;;5071486;28;20440;-43
2024/03/19 09:14:59;;;;;;;22.65;15.77;;;12.90;99.90;;;;;;5067156;28;20267;-43
2024/03/19 09:17:25;;;;;;;23.67;15.45;;;13.00;99.90;;;;;;5067759;28;20048;-46
2024/03/19 09:19:51;;;;;;;22.63;14.85;;;13.10;99.90;;;;;;5062499;28;20048;-46
2024/03/19 09:22:17;;;;;;;20.52;13.48;;;13.30;99.90;;;;;;5063935;28;20063;-45
2024/03/19 09:24:43;;;;;;;21.27;14.35;;;13.30;99.90;;;;;;5069623;28;20668;-44
2024/03/19 09:27:09;;;;;;;20.67;13.77;;;13.40;99.90;;;;;;5060184;28;20462;-44
2024/03/19 09:29:35;;;;;;;20.63;13.45;;;13.40;99.90;;;;;;5068040;28;20492;-45
2024/03/19 09:32:02;;;;;;;17.02;12.40;;;13.50;99.90;;;;;;5062247;28;20075;-46
2024/03/19 09:34:28;;;;;;;14.80;10.93;;;13.60;99.90;;;;;;5064462;28;20344;-48
2024/03/19 09:36:55;;;;;;;19.02;12.55;;;13.50;99.90;;;;;;5067185;28;20040;-50
2024/03/19 09:39:22;;;;;;;15.15;11.63;;;13.50;99.90;;;;;;5067459;28;20044;-45
2024/03/19 09:42:10;;;;;;;17.70;12.00;;;13.60;99.90;;;;;;5068008;28;20040;-46
2024/03/19 09:44:36;;;;;;;19.05;12.57;;;13.60;99.90;;;;;;5062824;28;20037;-48
2024/03/19 09:47:06;;;;;;;14.27;10.32;;;13.60;99.90;;;;;;5050641;28;20264;-47
2024/03/19 09:49:32;;;;;;;14.65;10.60;;;13.60;99.90;;;;;;5066635;28;20047;-49
2024/03/19 09:52:03;;;;;;;16.85;11.38;;;13.80;99.90;;;;;;5064814;28;20036;-49
2024/03/19 09:54:30;;;;;;;15.85;11.60;;;13.80;99.90;;;;;;5064179;28;20411;-46
2024/03/19 09:56:59;;;;;;;14.77;10.75;;;14.00;99.90;;;;;;5061700;28;20053;-45
2024/03/19 09:59:27;;;;;;;12.45;10.35;;;14.00;99.90;;;;;;5065344;28;20032;-45
2024/03/19 10:01:54;;;;;;;14.52;10.43;;;14.10;99.90;;;;;;5082944;28;20098;-46
2024/03/19 10:04:21;;;;;;;16.83;10.38;;;14.40;99.90;;;;;;5063845;28;20044;-43
2024/03/19 10:06:48;;;;;;;14.18;10.70;;;14.60;99.90;;;;;;5066244;28;20052;-44
2024/03/19 10:09:16;;;;;;;14.02;10.65;;;14.80;99.90;;;;;;5067473;28;20044;-49
2024/03/19 10:11:42;;;;;;;13.40;10.27;;;15.00;99.90;;;;;;5065037;28;20044;-48
2024/03/19 10:14:09;;;;;;;15.18;11.05;;;15.10;99.90;;;;;;5063001;28;20048;-44
2024/03/19 10:16:42;;;;;;;13.40;9.25;;;15.30;99.90;;;;;;5066482;28;20049;-46
2024/03/19 10:19:12;;;;;;;14.40;10.85;;;15.40;99.90;;;;;;5061600;28;20037;-43
2024/03/19 10:21:39;;;;;;;13.05;10.50;;;15.40;99.90;;;;;;5063309;28;20055;-48
2024/03/19 10:24:23;;;;;;;13.80;10.93;;;15.50;99.90;;;;;;5065560;28;20425;-45
2024/03/19 10:26:51;;;;;;;14.32;10.25;;;15.90;99.90;;;;;;5064794;28;20044;-45
2024/03/19 10:29:17;;;;;;;11.85;9.32;;;16.30;99.90;;;;;;5067223;28;20048;-47
2024/03/19 10:31:46;;;;;;;11.13;9.07;;;16.70;99.90;;;;;;5061396;28;20048;-45
2024/03/19 10:34:25;;;;;;;12.13;9.50;;;16.90;99.90;;;;;;5062763;28;20206;-49
2024/03/19 10:36:53;;;;;;;12.50;9.45;;;16.80;99.90;;;;;;5061014;28;20067;-46
2024/03/19 10:39:21;;;;;;;12.52;9.45;;;16.70;99.90;;;;;;5065121;28;20048;-44
2024/03/19 10:41:48;;;;;;;14.07;9.38;;;16.70;99.90;;;;;;5063903;28;20044;-45
2024/03/19 10:44:16;;;;;;;10.88;9.10;;;16.80;99.90;;;;;;5066032;28;20275;-44
2024/03/19 10:46:47;;;;;;;10.07;8.48;;;16.80;99.90;;;;;;5065658;28;20056;-49
2024/03/19 10:49:15;;;;;;;11.68;8.63;;;17.10;99.90;;;;;;5067582;28;20549;-45
2024/03/19 10:51:43;;;;;;;15.20;11.00;;;17.10;99.90;;;;;;5065309;28;20049;-48
2024/03/19 10:54:12;;;;;;;14.82;10.98;;;17.30;99.90;;;;;;5065680;28;20103;-44
2024/03/19 10:56:39;;;;;;;11.85;9.30;;;17.30;99.90;;;;;;5064354;28;20496;-51
2024/03/19 10:59:08;;;;;;;11.93;9.05;;;17.50;99.90;;;;;;5066088;28;20063;-48
2024/03/19 11:01:46;;;;;;;22.98;10.15;;;17.90;99.90;;;;;;5060974;28;20041;-47
2024/03/19 11:04:14;;;;;;;11.63;9.95;;;18.10;99.90;;;;;;5064342;28;20540;-43
2024/03/19 11:06:41;;;;;;;12.75;10.52;;;18.50;99.90;;;;;;5060505;28;20055;-45
2024/03/19 11:09:20;;;;;;;13.75;11.10;;;18.80;99.90;;;;;;5077598;28;20044;-47
2024/03/19 11:11:53;;;;;;;13.93;10.40;;;19.00;99.90;;;;;;5065482;28;20040;-46
2024/03/19 11:14:21;;;;;;;14.13;10.52;;;18.80;99.90;;;;;;5063710;28;20516;-44
2024/03/19 11:16:48;;;;;;;14.80;10.48;;;18.80;99.90;;;;;;5064107;28;20184;-49
2024/03/19 11:19:22;;;;;;;13.80;10.05;;;18.80;99.90;;;;;;5058954;28;20195;-43
2024/03/19 11:21:49;;;;;;;16.80;11.55;;;19.10;99.90;;;;;;5064646;28;20033;-44
2024/03/19 11:24:28;;;;;;;12.75;10.63;;;19.20;99.90;;;;;;5063911;28;20040;-50
2024/03/19 11:26:58;;;;;;;12.05;10.32;;;19.50;99.90;;;;;;5062555;28;20505;-49
2024/03/19 11:29:29;;;;;;;14.45;11.60;;;19.90;99.90;;;;;;5044444;28;20177;-47
2024/03/19 11:31:59;;;;;;;14.70;11.17;;;20.20;99.90;;;;;;5062759;28;20506;-43
2024/03/19 11:34:26;;;;;;;12.65;10.05;;;20.60;99.90;;;;;;5065161;28;20060;-46
2024/03/19 11:36:54;;;;;;;16.85;11.05;;;21.10;99.90;;;;;;5062403;28;20101;-48
2024/03/19 11:39:21;;;;;;;13.20;11.02;;;21.20;99.90;;;;;;5066185;28;20081;-46
2024/03/19 11:41:48;;;;;;;12.77;11.40;;;21.00;99.90;;;;;;5065589;28;20050;-47
2024/03/19 11:44:15;;;;;;;14.10;10.18;;;20.40;99.90;;;;;;5063922;28;20344;-50
2024/03/19 11:46:42;;;;;;;14.43;11.15;;;20.00;99.90;;;;;;5065928;28;20051;-44
2024/03/19 11:49:28;;;;;;;11.77;10.48;;;20.00;99.90;;;;;;5061461;28;20040;-50
2024/03/19 11:52:14;;;;;;;14.48;12.10;;;20.80;99.90;;;;;;5075217;28;20445;-48
2024/03/19 11:54:42;;;;;;;12.73;11.35;;;20.80;99.90;;;;;;5064951;28;20040;-46
2024/03/19 11:57:15;;;;;;;13.68;11.18;;;20.90;99.90;;;;;;5064155;28;20057;-39
2024/03/19 11:59:41;;;;;;;11.38;10.18;;;21.40;99.90;;;;;;5049320;28;20056;-42
2024/03/19 12:02:11;;;;;;;10.77;9.70;;;21.30;99.90;;;;;;5065507;28;20048;-46
2024/03/19 12:04:38;;;;;;;10.27;9.25;;;21.00;99.90;;;;;;5065800;28;20037;-48
2024/03/19 12:07:04;;;;;;;13.88;10.00;;;21.40;99.00;;;;;;5065803;28;20048;-48
2024/03/19 12:09:31;;;;;;;10.05;8.98;;;20.90;99.00;;;;;;5062638;28;20075;-47
2024/03/19 12:11:57;;;;;;;13.35;10.60;;;20.60;99.90;;;;;;5065317;28;20056;-51
2024/03/19 12:14:26;;;;;;;12.98;10.20;;;20.40;99.00;;;;;;5065159;28;20118;-49
2024/03/19 12:16:52;;;;;;;13.10;10.65;;;20.30;99.30;;;;;;5064324;28;20665;-43
2024/03/19 12:19:19;;;;;;;15.65;12.52;;;20.40;99.90;;;;;;5064956;28;20071;-42
2024/03/19 12:21:50;;;;;;;12.70;10.88;;;20.60;99.90;;;;;;5062885;28;20048;-42
2024/03/19 12:24:17;;;;;;;12.43;11.13;;;21.10;99.90;;;;;;5066393;28;20542;-42
2024/03/19 12:26:50;;;;;;;16.90;11.02;;;21.80;99.90;;;;;;5063658;28;20040;-45
2024/03/19 12:29:21;;;;;;;13.93;11.25;;;22.60;98.50;;;;;;5066769;28;20048;-45
2024/03/19 12:31:59;;;;;;;12.07;10.85;;;22.80;97.40;;;;;;5057914;28;20072;-43
2024/03/19 12:34:38;;;;;;;9.65;8.55;;;22.60;96.30;;;;;;5065064;28;21090;-44